sensor_id;sensor_type;location;lat;lon;timestamp;P1;durP1;ratioP1;P2;durP2;ratioP2
48635;SDS011;34429;52.332;5.614;2023-02-04T00:01:15;22.27;;;3.83;;
48635;SDS011;34429;52.332;5.614;2023-02-04T00:03:46;22.85;;;2.65;;
48635;SDS011;34429;52.332;5.614;2023-02-04T00:06:14;26.50;;;3.53;;
48635;SDS011;34429;52.332;5.614;2023-02-04T00:08:43;19.57;;;3.70;;
48635;SDS011;34429;52.332;5.614;2023-02-04T00:11:11;23.73;;;3.75;;
48635;SDS011;34429;52.332;5.614;2023-02-04T00:13:39;27.38;;;4.05;;
48635;SDS011;34429;52.332;5.614;2023-02-04T00:16:08;18.83;;;3.22;;
48635;SDS011;34429;52.332;5.614;2023-02-04T00:18:36;22.85;;;2.83;;
48635;SDS011;34429;52.332;5.614;2023-02-04T00:21:09;21.52;;;2.95;;
48635;SDS011;34429;52.332;5.614;2023-02-04T00:23:38;19.73;;;3.42;;
48635;SDS011;34429;52.332;5.614;2023-02-04T00:26:06;22.67;;;3.38;;
48635;SDS011;34429;52.332;5.614;2023-02-04T00:28:34;17.80;;;3.10;;
48635;SDS011;34429;52.332;5.614;2023-02-04T00:31:03;21.73;;;2.95;;
48635;SDS011;34429;52.332;5.614;2023-02-04T00:33:31;18.27;;;3.38;;
48635;SDS011;34429;52.332;5.614;2023-02-04T00:36:00;15.20;;;3.08;;
48635;SDS011;34429;52.332;5.614;2023-02-04T00:38:30;19.80;;;3.30;;
48635;SDS011;34429;52.332;5.614;2023-02-04T00:40:59;23.83;;;3.53;;
48635;SDS011;34429;52.332;5.614;2023-02-04T00:43:27;18.98;;;3.05;;
48635;SDS011;34429;52.332;5.614;2023-02-04T00:45:55;24.35;;;3.47;;
48635;SDS011;34429;52.332;5.614;2023-02-04T00:48:24;23.83;;;3.35;;
48635;SDS011;34429;52.332;5.614;2023-02-04T00:50:52;17.05;;;2.53;;
48635;SDS011;34429;52.332;5.614;2023-02-04T00:53:20;16.77;;;2.50;;
48635;SDS011;34429;52.332;5.614;2023-02-04T00:55:51;19.00;;;3.08;;
48635;SDS011;34429;52.332;5.614;2023-02-04T00:58:20;21.67;;;3.55;;
48635;SDS011;34429;52.332;5.614;2023-02-04T01:00:48;26.17;;;3.85;;
48635;SDS011;34429;52.332;5.614;2023-02-04T01:03:16;20.58;;;3.28;;
48635;SDS011;34429;52.332;5.614;2023-02-04T01:05:46;12.98;;;2.40;;
48635;SDS011;34429;52.332;5.614;2023-02-04T01:08:14;13.20;;;3.00;;
48635;SDS011;34429;52.332;5.614;2023-02-04T01:10:43;14.23;;;3.15;;
48635;SDS011;34429;52.332;5.614;2023-02-04T01:13:14;19.33;;;3.38;;
48635;SDS011;34429;52.332;5.614;2023-02-04T01:15:42;20.33;;;3.88;;
48635;SDS011;34429;52.332;5.614;2023-02-04T01:18:11;22.35;;;4.47;;
48635;SDS011;34429;52.332;5.614;2023-02-04T01:20:40;16.83;;;3.40;;
48635;SDS011;34429;52.332;5.614;2023-02-04T01:23:08;20.33;;;3.50;;
48635;SDS011;34429;52.332;5.614;2023-02-04T01:25:39;20.90;;;2.78;;
48635;SDS011;34429;52.332;5.614;2023-02-04T01:28:08;25.90;;;3.85;;
48635;SDS011;34429;52.332;5.614;2023-02-04T01:30:46;21.55;;;3.78;;
48635;SDS011;34429;52.332;5.614;2023-02-04T01:33:14;29.33;;;3.97;;
48635;SDS011;34429;52.332;5.614;2023-02-04T01:35:48;25.48;;;2.53;;
48635;SDS011;34429;52.332;5.614;2023-02-04T01:38:17;21.88;;;3.58;;
48635;SDS011;34429;52.332;5.614;2023-02-04T01:40:45;21.83;;;3.33;;
48635;SDS011;34429;52.332;5.614;2023-02-04T01:43:14;18.05;;;3.55;;
48635;SDS011;34429;52.332;5.614;2023-02-04T01:45:43;20.50;;;3.23;;
48635;SDS011;34429;52.332;5.614;2023-02-04T01:48:14;23.17;;;3.40;;
48635;SDS011;34429;52.332;5.614;2023-02-04T01:50:44;24.20;;;3.65;;
48635;SDS011;34429;52.332;5.614;2023-02-04T01:53:14;17.33;;;3.05;;
48635;SDS011;34429;52.332;5.614;2023-02-04T01:55:45;17.25;;;2.88;;
48635;SDS011;34429;52.332;5.614;2023-02-04T01:58:13;15.70;;;3.17;;
48635;SDS011;34429;52.332;5.614;2023-02-04T02:00:42;25.80;;;3.35;;
48635;SDS011;34429;52.332;5.614;2023-02-04T02:03:13;23.45;;;3.90;;
48635;SDS011;34429;52.332;5.614;2023-02-04T02:05:42;26.05;;;3.42;;
48635;SDS011;34429;52.332;5.614;2023-02-04T02:08:12;22.30;;;4.82;;
48635;SDS011;34429;52.332;5.614;2023-02-04T02:10:42;24.17;;;2.90;;
48635;SDS011;34429;52.332;5.614;2023-02-04T02:13:14;19.73;;;3.50;;
48635;SDS011;34429;52.332;5.614;2023-02-04T02:15:45;20.15;;;3.55;;
48635;SDS011;34429;52.332;5.614;2023-02-04T02:18:17;20.15;;;3.22;;
48635;SDS011;34429;52.332;5.614;2023-02-04T02:20:49;35.63;;;3.95;;
48635;SDS011;34429;52.332;5.614;2023-02-04T02:23:18;18.95;;;3.83;;
48635;SDS011;34429;52.332;5.614;2023-02-04T02:25:53;21.95;;;3.63;;
48635;SDS011;34429;52.332;5.614;2023-02-04T02:28:21;24.33;;;3.13;;
48635;SDS011;34429;52.332;5.614;2023-02-04T02:30:50;20.10;;;2.60;;
48635;SDS011;34429;52.332;5.614;2023-02-04T02:33:19;21.73;;;3.38;;
48635;SDS011;34429;52.332;5.614;2023-02-04T02:35:50;23.15;;;3.50;;
48635;SDS011;34429;52.332;5.614;2023-02-04T02:38:18;32.33;;;3.20;;
48635;SDS011;34429;52.332;5.614;2023-02-04T02:40:48;19.23;;;3.35;;
48635;SDS011;34429;52.332;5.614;2023-02-04T02:43:21;28.90;;;4.03;;
48635;SDS011;34429;52.332;5.614;2023-02-04T02:45:52;25.00;;;3.95;;
48635;SDS011;34429;52.332;5.614;2023-02-04T02:48:22;17.95;;;3.35;;
48635;SDS011;34429;52.332;5.614;2023-02-04T02:50:50;26.48;;;4.53;;
48635;SDS011;34429;52.332;5.614;2023-02-04T02:53:19;25.23;;;3.73;;
48635;SDS011;34429;52.332;5.614;2023-02-04T02:58:21;25.35;;;3.90;;
48635;SDS011;34429;52.332;5.614;2023-02-04T03:00:56;27.45;;;3.47;;
48635;SDS011;34429;52.332;5.614;2023-02-04T03:03:26;19.35;;;3.08;;
48635;SDS011;34429;52.332;5.614;2023-02-04T03:05:58;24.00;;;2.95;;
48635;SDS011;34429;52.332;5.614;2023-02-04T03:08:31;22.65;;;3.25;;
48635;SDS011;34429;52.332;5.614;2023-02-04T03:11:00;15.88;;;2.70;;
48635;SDS011;34429;52.332;5.614;2023-02-04T03:13:31;25.45;;;3.95;;
48635;SDS011;34429;52.332;5.614;2023-02-04T03:16:01;21.15;;;3.08;;
48635;SDS011;34429;52.332;5.614;2023-02-04T03:18:32;21.33;;;3.40;;
48635;SDS011;34429;52.332;5.614;2023-02-04T03:21:01;15.45;;;2.75;;
48635;SDS011;34429;52.332;5.614;2023-02-04T03:23:32;23.42;;;2.88;;
48635;SDS011;34429;52.332;5.614;2023-02-04T03:26:02;24.05;;;4.15;;
48635;SDS011;34429;52.332;5.614;2023-02-04T03:28:37;17.58;;;3.10;;
48635;SDS011;34429;52.332;5.614;2023-02-04T03:31:06;17.33;;;3.22;;
48635;SDS011;34429;52.332;5.614;2023-02-04T03:33:35;29.45;;;4.22;;
48635;SDS011;34429;52.332;5.614;2023-02-04T03:36:03;22.85;;;3.72;;
48635;SDS011;34429;52.332;5.614;2023-02-04T03:38:32;19.63;;;3.13;;
48635;SDS011;34429;52.332;5.614;2023-02-04T03:41:01;15.53;;;2.60;;
48635;SDS011;34429;52.332;5.614;2023-02-04T03:43:29;17.03;;;3.80;;
48635;SDS011;34429;52.332;5.614;2023-02-04T03:46:00;23.60;;;4.10;;
48635;SDS011;34429;52.332;5.614;2023-02-04T03:50:45;25.65;;;3.97;;
48635;SDS011;34429;52.332;5.614;2023-02-04T03:53:13;23.63;;;3.65;;
48635;SDS011;34429;52.332;5.614;2023-02-04T03:55:42;21.48;;;2.90;;
48635;SDS011;34429;52.332;5.614;2023-02-04T03:58:10;18.95;;;3.40;;
48635;SDS011;34429;52.332;5.614;2023-02-04T04:00:38;15.32;;;2.95;;
48635;SDS011;34429;52.332;5.614;2023-02-04T04:03:07;21.90;;;3.20;;
48635;SDS011;34429;52.332;5.614;2023-02-04T04:05:35;18.50;;;3.53;;
48635;SDS011;34429;52.332;5.614;2023-02-04T04:08:06;23.83;;;3.85;;
48635;SDS011;34429;52.332;5.614;2023-02-04T04:10:34;21.65;;;3.08;;
48635;SDS011;34429;52.332;5.614;2023-02-04T04:13:03;20.30;;;2.90;;
48635;SDS011;34429;52.332;5.614;2023-02-04T04:15:31;20.63;;;3.42;;
48635;SDS011;34429;52.332;5.614;2023-02-04T04:17:59;22.27;;;3.15;;
48635;SDS011;34429;52.332;5.614;2023-02-04T04:20:28;14.77;;;2.53;;
48635;SDS011;34429;52.332;5.614;2023-02-04T04:22:57;14.15;;;3.38;;
48635;SDS011;34429;52.332;5.614;2023-02-04T04:25:27;20.40;;;3.90;;
48635;SDS011;34429;52.332;5.614;2023-02-04T04:27:56;18.92;;;3.05;;
48635;SDS011;34429;52.332;5.614;2023-02-04T04:30:24;31.52;;;3.90;;
48635;SDS011;34429;52.332;5.614;2023-02-04T04:32:52;16.83;;;3.33;;
48635;SDS011;34429;52.332;5.614;2023-02-04T04:35:21;29.35;;;3.50;;
48635;SDS011;34429;52.332;5.614;2023-02-04T04:37:49;18.40;;;3.95;;
48635;SDS011;34429;52.332;5.614;2023-02-04T04:40:17;23.45;;;4.10;;
48635;SDS011;34429;52.332;5.614;2023-02-04T04:42:48;19.92;;;2.72;;
48635;SDS011;34429;52.332;5.614;2023-02-04T04:45:17;14.57;;;3.83;;
48635;SDS011;34429;52.332;5.614;2023-02-04T04:47:45;19.45;;;4.00;;
48635;SDS011;34429;52.332;5.614;2023-02-04T04:50:14;14.82;;;3.30;;
48635;SDS011;34429;52.332;5.614;2023-02-04T04:52:43;13.25;;;3.10;;
48635;SDS011;34429;52.332;5.614;2023-02-04T04:55:11;20.17;;;3.10;;
48635;SDS011;34429;52.332;5.614;2023-02-04T04:57:40;18.20;;;3.03;;
48635;SDS011;34429;52.332;5.614;2023-02-04T05:00:13;15.60;;;2.65;;
48635;SDS011;34429;52.332;5.614;2023-02-04T05:02:43;17.75;;;2.88;;
48635;SDS011;34429;52.332;5.614;2023-02-04T05:05:12;11.90;;;2.70;;
48635;SDS011;34429;52.332;5.614;2023-02-04T05:07:40;14.07;;;2.58;;
48635;SDS011;34429;52.332;5.614;2023-02-04T05:10:09;14.10;;;3.03;;
48635;SDS011;34429;52.332;5.614;2023-02-04T05:12:37;15.15;;;2.97;;
48635;SDS011;34429;52.332;5.614;2023-02-04T05:15:06;20.08;;;3.10;;
48635;SDS011;34429;52.332;5.614;2023-02-04T05:17:37;16.63;;;2.20;;
48635;SDS011;34429;52.332;5.614;2023-02-04T05:20:06;13.82;;;3.35;;
48635;SDS011;34429;52.332;5.614;2023-02-04T05:22:35;21.73;;;2.80;;
48635;SDS011;34429;52.332;5.614;2023-02-04T05:25:04;18.05;;;3.30;;
48635;SDS011;34429;52.332;5.614;2023-02-04T05:27:33;24.73;;;3.10;;
48635;SDS011;34429;52.332;5.614;2023-02-04T05:30:01;15.45;;;4.15;;
48635;SDS011;34429;52.332;5.614;2023-02-04T05:32:30;16.27;;;3.42;;
48635;SDS011;34429;52.332;5.614;2023-02-04T05:35:00;30.35;;;3.35;;
48635;SDS011;34429;52.332;5.614;2023-02-04T05:37:29;14.45;;;2.58;;
48635;SDS011;34429;52.332;5.614;2023-02-04T05:39:57;16.13;;;3.10;;
48635;SDS011;34429;52.332;5.614;2023-02-04T05:42:25;16.30;;;3.17;;
48635;SDS011;34429;52.332;5.614;2023-02-04T05:44:54;17.27;;;3.95;;
48635;SDS011;34429;52.332;5.614;2023-02-04T05:47:22;17.90;;;2.80;;
48635;SDS011;34429;52.332;5.614;2023-02-04T05:49:51;13.10;;;2.47;;
48635;SDS011;34429;52.332;5.614;2023-02-04T05:52:22;16.25;;;3.00;;
48635;SDS011;34429;52.332;5.614;2023-02-04T05:54:50;15.38;;;2.47;;
48635;SDS011;34429;52.332;5.614;2023-02-04T05:57:18;11.38;;;2.28;;
48635;SDS011;34429;52.332;5.614;2023-02-04T05:59:47;13.38;;;2.40;;
48635;SDS011;34429;52.332;5.614;2023-02-04T06:02:15;15.00;;;3.88;;
48635;SDS011;34429;52.332;5.614;2023-02-04T06:04:44;17.80;;;2.75;;
48635;SDS011;34429;52.332;5.614;2023-02-04T06:07:12;14.63;;;3.08;;
48635;SDS011;34429;52.332;5.614;2023-02-04T06:09:43;18.15;;;2.40;;
48635;SDS011;34429;52.332;5.614;2023-02-04T06:12:12;22.38;;;2.92;;
48635;SDS011;34429;52.332;5.614;2023-02-04T06:14:40;19.45;;;3.55;;
48635;SDS011;34429;52.332;5.614;2023-02-04T06:17:08;22.80;;;3.67;;
48635;SDS011;34429;52.332;5.614;2023-02-04T06:19:36;19.52;;;2.88;;
48635;SDS011;34429;52.332;5.614;2023-02-04T06:22:05;14.95;;;3.05;;
48635;SDS011;34429;52.332;5.614;2023-02-04T06:24:33;17.50;;;2.67;;
48635;SDS011;34429;52.332;5.614;2023-02-04T06:27:04;10.30;;;2.42;;
48635;SDS011;34429;52.332;5.614;2023-02-04T06:29:32;17.75;;;2.58;;
48635;SDS011;34429;52.332;5.614;2023-02-04T06:32:01;15.27;;;2.90;;
48635;SDS011;34429;52.332;5.614;2023-02-04T06:34:29;18.08;;;3.40;;
48635;SDS011;34429;52.332;5.614;2023-02-04T06:36:57;8.57;;;2.78;;
48635;SDS011;34429;52.332;5.614;2023-02-04T06:39:26;17.70;;;3.33;;
48635;SDS011;34429;52.332;5.614;2023-02-04T06:41:54;18.58;;;3.20;;
48635;SDS011;34429;52.332;5.614;2023-02-04T06:44:25;14.13;;;2.50;;
48635;SDS011;34429;52.332;5.614;2023-02-04T06:46:53;19.88;;;3.42;;
48635;SDS011;34429;52.332;5.614;2023-02-04T06:49:21;14.98;;;3.00;;
48635;SDS011;34429;52.332;5.614;2023-02-04T06:51:50;21.58;;;3.83;;
48635;SDS011;34429;52.332;5.614;2023-02-04T06:54:19;16.48;;;3.50;;
48635;SDS011;34429;52.332;5.614;2023-02-04T06:56:48;20.60;;;3.45;;
48635;SDS011;34429;52.332;5.614;2023-02-04T06:59:16;19.17;;;3.27;;
48635;SDS011;34429;52.332;5.614;2023-02-04T07:01:47;12.77;;;2.80;;
48635;SDS011;34429;52.332;5.614;2023-02-04T07:04:16;19.10;;;3.35;;
48635;SDS011;34429;52.332;5.614;2023-02-04T07:06:44;16.02;;;3.75;;
48635;SDS011;34429;52.332;5.614;2023-02-04T07:09:12;17.95;;;2.92;;
48635;SDS011;34429;52.332;5.614;2023-02-04T07:11:41;14.80;;;2.85;;
48635;SDS011;34429;52.332;5.614;2023-02-04T07:14:09;19.33;;;3.00;;
48635;SDS011;34429;52.332;5.614;2023-02-04T07:16:37;15.02;;;3.08;;
48635;SDS011;34429;52.332;5.614;2023-02-04T07:19:08;20.50;;;3.88;;
48635;SDS011;34429;52.332;5.614;2023-02-04T07:21:36;13.70;;;2.80;;
48635;SDS011;34429;52.332;5.614;2023-02-04T07:24:05;18.38;;;2.83;;
48635;SDS011;34429;52.332;5.614;2023-02-04T07:26:33;14.73;;;2.95;;
48635;SDS011;34429;52.332;5.614;2023-02-04T07:29:02;13.32;;;3.70;;
48635;SDS011;34429;52.332;5.614;2023-02-04T07:31:30;17.02;;;2.95;;
48635;SDS011;34429;52.332;5.614;2023-02-04T07:33:58;11.60;;;2.80;;
48635;SDS011;34429;52.332;5.614;2023-02-04T07:36:29;23.20;;;3.65;;
48635;SDS011;34429;52.332;5.614;2023-02-04T07:38:57;19.58;;;3.80;;
48635;SDS011;34429;52.332;5.614;2023-02-04T07:41:26;23.30;;;4.18;;
48635;SDS011;34429;52.332;5.614;2023-02-04T07:43:54;25.42;;;4.13;;
48635;SDS011;34429;52.332;5.614;2023-02-04T07:46:22;22.98;;;4.40;;
48635;SDS011;34429;52.332;5.614;2023-02-04T07:48:51;19.53;;;4.77;;
48635;SDS011;34429;52.332;5.614;2023-02-04T07:51:19;21.70;;;3.88;;
48635;SDS011;34429;52.332;5.614;2023-02-04T07:53:50;18.27;;;4.10;;
48635;SDS011;34429;52.332;5.614;2023-02-04T07:56:19;15.77;;;3.58;;
48635;SDS011;34429;52.332;5.614;2023-02-04T07:58:47;18.33;;;3.42;;
48635;SDS011;34429;52.332;5.614;2023-02-04T08:01:16;18.23;;;3.97;;
48635;SDS011;34429;52.332;5.614;2023-02-04T08:03:44;16.67;;;4.10;;
48635;SDS011;34429;52.332;5.614;2023-02-04T08:06:12;24.30;;;3.83;;
48635;SDS011;34429;52.332;5.614;2023-02-04T08:08:41;16.58;;;4.43;;
48635;SDS011;34429;52.332;5.614;2023-02-04T08:11:12;18.38;;;3.63;;
48635;SDS011;34429;52.332;5.614;2023-02-04T08:13:40;25.20;;;4.32;;
48635;SDS011;34429;52.332;5.614;2023-02-04T08:16:08;26.35;;;4.40;;
48635;SDS011;34429;52.332;5.614;2023-02-04T08:18:37;16.17;;;3.55;;
48635;SDS011;34429;52.332;5.614;2023-02-04T08:21:05;23.58;;;3.80;;
48635;SDS011;34429;52.332;5.614;2023-02-04T08:23:33;16.15;;;3.53;;
48635;SDS011;34429;52.332;5.614;2023-02-04T08:26:05;19.67;;;4.55;;
48635;SDS011;34429;52.332;5.614;2023-02-04T08:28:37;21.60;;;5.32;;
48635;SDS011;34429;52.332;5.614;2023-02-04T08:31:06;22.77;;;3.08;;
48635;SDS011;34429;52.332;5.614;2023-02-04T08:33:36;17.92;;;4.13;;
48635;SDS011;34429;52.332;5.614;2023-02-04T08:36:05;25.50;;;4.13;;
48635;SDS011;34429;52.332;5.614;2023-02-04T08:38:34;23.88;;;4.55;;
48635;SDS011;34429;52.332;5.614;2023-02-04T08:41:04;23.63;;;5.10;;
48635;SDS011;34429;52.332;5.614;2023-02-04T08:43:32;18.00;;;4.07;;
48635;SDS011;34429;52.332;5.614;2023-02-04T08:46:03;19.33;;;5.15;;
48635;SDS011;34429;52.332;5.614;2023-02-04T08:48:32;25.63;;;4.57;;
48635;SDS011;34429;52.332;5.614;2023-02-04T08:51:00;20.50;;;4.17;;
48635;SDS011;34429;52.332;5.614;2023-02-04T08:53:29;17.58;;;3.80;;
48635;SDS011;34429;52.332;5.614;2023-02-04T08:55:57;25.85;;;4.13;;
48635;SDS011;34429;52.332;5.614;2023-02-04T08:58:25;22.67;;;3.28;;
48635;SDS011;34429;52.332;5.614;2023-02-04T09:00:54;15.52;;;4.18;;
48635;SDS011;34429;52.332;5.614;2023-02-04T09:03:25;15.07;;;3.13;;
48635;SDS011;34429;52.332;5.614;2023-02-04T09:05:53;23.40;;;4.47;;
48635;SDS011;34429;52.332;5.614;2023-02-04T09:08:22;20.27;;;3.92;;
48635;SDS011;34429;52.332;5.614;2023-02-04T09:10:50;20.92;;;3.90;;
48635;SDS011;34429;52.332;5.614;2023-02-04T09:13:18;19.88;;;3.80;;
48635;SDS011;34429;52.332;5.614;2023-02-04T09:15:47;28.25;;;4.40;;
48635;SDS011;34429;52.332;5.614;2023-02-04T09:18:16;28.08;;;3.90;;
48635;SDS011;34429;52.332;5.614;2023-02-04T09:20:49;20.35;;;3.70;;
48635;SDS011;34429;52.332;5.614;2023-02-04T09:23:18;22.35;;;3.47;;
48635;SDS011;34429;52.332;5.614;2023-02-04T09:25:48;21.45;;;3.92;;
48635;SDS011;34429;52.332;5.614;2023-02-04T09:28:16;16.85;;;3.72;;
48635;SDS011;34429;52.332;5.614;2023-02-04T09:30:45;16.23;;;3.87;;
48635;SDS011;34429;52.332;5.614;2023-02-04T09:33:14;23.23;;;4.22;;
48635;SDS011;34429;52.332;5.614;2023-02-04T09:35:43;21.60;;;5.45;;
48635;SDS011;34429;52.332;5.614;2023-02-04T09:38:14;19.52;;;4.22;;
48635;SDS011;34429;52.332;5.614;2023-02-04T09:40:43;19.08;;;3.92;;
48635;SDS011;34429;52.332;5.614;2023-02-04T09:43:16;19.23;;;3.83;;
48635;SDS011;34429;52.332;5.614;2023-02-04T09:45:49;22.00;;;5.88;;
48635;SDS011;34429;52.332;5.614;2023-02-04T09:48:18;20.33;;;4.97;;
48635;SDS011;34429;52.332;5.614;2023-02-04T09:50:48;27.42;;;4.72;;
48635;SDS011;34429;52.332;5.614;2023-02-04T09:53:20;22.70;;;4.75;;
48635;SDS011;34429;52.332;5.614;2023-02-04T09:55:51;29.75;;;4.05;;
48635;SDS011;34429;52.332;5.614;2023-02-04T09:58:20;18.95;;;4.55;;
48635;SDS011;34429;52.332;5.614;2023-02-04T10:00:51;24.30;;;4.55;;
48635;SDS011;34429;52.332;5.614;2023-02-04T10:03:25;25.27;;;4.22;;
48635;SDS011;34429;52.332;5.614;2023-02-04T10:05:54;21.58;;;4.10;;
48635;SDS011;34429;52.332;5.614;2023-02-04T10:08:27;22.20;;;4.05;;
48635;SDS011;34429;52.332;5.614;2023-02-04T10:10:56;25.35;;;5.47;;
48635;SDS011;34429;52.332;5.614;2023-02-04T10:13:28;29.60;;;4.80;;
48635;SDS011;34429;52.332;5.614;2023-02-04T10:15:59;24.80;;;4.63;;
48635;SDS011;34429;52.332;5.614;2023-02-04T10:18:29;28.60;;;4.88;;
48635;SDS011;34429;52.332;5.614;2023-02-04T10:21:07;24.95;;;4.95;;
48635;SDS011;34429;52.332;5.614;2023-02-04T10:23:44;28.13;;;4.85;;
48635;SDS011;34429;52.332;5.614;2023-02-04T10:26:15;31.48;;;4.63;;
48635;SDS011;34429;52.332;5.614;2023-02-04T10:28:45;21.92;;;4.22;;
48635;SDS011;34429;52.332;5.614;2023-02-04T10:31:30;22.90;;;5.38;;
48635;SDS011;34429;52.332;5.614;2023-02-04T10:34:05;19.27;;;4.53;;
48635;SDS011;34429;52.332;5.614;2023-02-04T10:36:38;29.92;;;5.72;;
48635;SDS011;34429;52.332;5.614;2023-02-04T10:39:13;26.08;;;4.55;;
48635;SDS011;34429;52.332;5.614;2023-02-04T10:41:46;21.67;;;4.85;;
48635;SDS011;34429;52.332;5.614;2023-02-04T10:44:17;29.70;;;4.90;;
48635;SDS011;34429;52.332;5.614;2023-02-04T10:46:47;21.98;;;5.68;;
48635;SDS011;34429;52.332;5.614;2023-02-04T10:49:16;27.48;;;4.25;;
48635;SDS011;34429;52.332;5.614;2023-02-04T10:51:47;23.15;;;4.57;;
48635;SDS011;34429;52.332;5.614;2023-02-04T10:54:19;19.55;;;3.90;;
48635;SDS011;34429;52.332;5.614;2023-02-04T10:56:58;31.60;;;4.55;;
48635;SDS011;34429;52.332;5.614;2023-02-04T10:59:30;26.63;;;4.80;;
48635;SDS011;34429;52.332;5.614;2023-02-04T11:01:59;20.42;;;4.13;;
48635;SDS011;34429;52.332;5.614;2023-02-04T11:04:29;19.40;;;4.50;;
48635;SDS011;34429;52.332;5.614;2023-02-04T11:07:00;28.15;;;5.15;;
48635;SDS011;34429;52.332;5.614;2023-02-04T11:09:30;30.23;;;4.53;;
48635;SDS011;34429;52.332;5.614;2023-02-04T11:11:59;24.05;;;4.35;;
48635;SDS011;34429;52.332;5.614;2023-02-04T11:14:28;25.50;;;4.15;;
48635;SDS011;34429;52.332;5.614;2023-02-04T11:16:57;32.15;;;5.43;;
48635;SDS011;34429;52.332;5.614;2023-02-04T11:19:30;26.05;;;3.85;;
48635;SDS011;34429;52.332;5.614;2023-02-04T11:22:04;28.98;;;4.78;;
48635;SDS011;34429;52.332;5.614;2023-02-04T11:24:37;27.10;;;4.63;;
48635;SDS011;34429;52.332;5.614;2023-02-04T11:27:06;23.50;;;4.95;;
48635;SDS011;34429;52.332;5.614;2023-02-04T11:29:46;28.95;;;4.88;;
48635;SDS011;34429;52.332;5.614;2023-02-04T11:32:28;27.97;;;4.30;;
48635;SDS011;34429;52.332;5.614;2023-02-04T11:35:07;33.97;;;5.00;;
48635;SDS011;34429;52.332;5.614;2023-02-04T11:37:49;26.17;;;4.40;;
48635;SDS011;34429;52.332;5.614;2023-02-04T11:40:24;25.27;;;4.07;;
48635;SDS011;34429;52.332;5.614;2023-02-04T11:42:56;20.98;;;4.63;;
48635;SDS011;34429;52.332;5.614;2023-02-04T11:45:26;30.65;;;5.65;;
48635;SDS011;34429;52.332;5.614;2023-02-04T11:47:57;32.70;;;5.60;;
48635;SDS011;34429;52.332;5.614;2023-02-04T11:50:28;25.67;;;4.97;;
48635;SDS011;34429;52.332;5.614;2023-02-04T11:52:58;28.13;;;3.88;;
48635;SDS011;34429;52.332;5.614;2023-02-04T11:55:33;31.13;;;4.78;;
48635;SDS011;34429;52.332;5.614;2023-02-04T11:58:03;31.83;;;5.70;;
48635;SDS011;34429;52.332;5.614;2023-02-04T12:00:35;22.75;;;4.22;;
48635;SDS011;34429;52.332;5.614;2023-02-04T12:03:04;23.98;;;4.47;;
48635;SDS011;34429;52.332;5.614;2023-02-04T12:05:47;29.65;;;4.40;;
48635;SDS011;34429;52.332;5.614;2023-02-04T12:08:24;18.63;;;3.42;;
48635;SDS011;34429;52.332;5.614;2023-02-04T12:11:03;20.73;;;3.95;;
48635;SDS011;34429;52.332;5.614;2023-02-04T12:13:44;22.58;;;3.42;;
48635;SDS011;34429;52.332;5.614;2023-02-04T12:16:13;23.40;;;3.17;;
48635;SDS011;34429;52.332;5.614;2023-02-04T12:18:42;23.20;;;3.67;;
48635;SDS011;34429;52.332;5.614;2023-02-04T12:21:25;18.67;;;3.55;;
48635;SDS011;34429;52.332;5.614;2023-02-04T12:23:53;26.17;;;3.28;;
48635;SDS011;34429;52.332;5.614;2023-02-04T12:26:21;22.70;;;3.10;;
48635;SDS011;34429;52.332;5.614;2023-02-04T12:28:49;17.30;;;3.42;;
48635;SDS011;34429;52.332;5.614;2023-02-04T12:31:18;22.13;;;4.15;;
48635;SDS011;34429;52.332;5.614;2023-02-04T12:33:46;28.98;;;3.95;;
48635;SDS011;34429;52.332;5.614;2023-02-04T12:36:14;24.60;;;4.78;;
48635;SDS011;34429;52.332;5.614;2023-02-04T12:38:45;18.63;;;3.05;;
48635;SDS011;34429;52.332;5.614;2023-02-04T12:41:14;22.67;;;3.28;;
48635;SDS011;34429;52.332;5.614;2023-02-04T12:43:43;13.40;;;2.05;;
48635;SDS011;34429;52.332;5.614;2023-02-04T12:46:14;14.57;;;2.95;;
48635;SDS011;34429;52.332;5.614;2023-02-04T12:48:42;19.50;;;2.63;;
48635;SDS011;34429;52.332;5.614;2023-02-04T12:51:11;20.33;;;3.05;;
48635;SDS011;34429;52.332;5.614;2023-02-04T12:53:39;17.30;;;3.58;;
48635;SDS011;34429;52.332;5.614;2023-02-04T12:56:10;14.23;;;2.42;;
48635;SDS011;34429;52.332;5.614;2023-02-04T12:58:39;15.13;;;2.55;;
48635;SDS011;34429;52.332;5.614;2023-02-04T13:01:07;20.37;;;3.13;;
48635;SDS011;34429;52.332;5.614;2023-02-04T13:03:35;23.90;;;3.05;;
48635;SDS011;34429;52.332;5.614;2023-02-04T13:06:04;20.92;;;3.10;;
48635;SDS011;34429;52.332;5.614;2023-02-04T13:08:32;16.63;;;3.30;;
48635;SDS011;34429;52.332;5.614;2023-02-04T13:11:01;17.23;;;2.90;;
48635;SDS011;34429;52.332;5.614;2023-02-04T13:13:32;22.50;;;3.15;;
48635;SDS011;34429;52.332;5.614;2023-02-04T13:16:00;15.07;;;3.20;;
48635;SDS011;34429;52.332;5.614;2023-02-04T13:18:29;15.10;;;2.90;;
48635;SDS011;34429;52.332;5.614;2023-02-04T13:20:58;17.17;;;3.05;;
48635;SDS011;34429;52.332;5.614;2023-02-04T13:23:26;17.88;;;2.97;;
48635;SDS011;34429;52.332;5.614;2023-02-04T13:25:54;22.05;;;2.65;;
48635;SDS011;34429;52.332;5.614;2023-02-04T13:28:23;12.43;;;2.55;;
48635;SDS011;34429;52.332;5.614;2023-02-04T13:30:53;17.97;;;3.27;;
48635;SDS011;34429;52.332;5.614;2023-02-04T13:33:22;20.35;;;2.83;;
48635;SDS011;34429;52.332;5.614;2023-02-04T13:35:50;15.27;;;2.80;;
48635;SDS011;34429;52.332;5.614;2023-02-04T13:38:19;14.70;;;2.40;;
48635;SDS011;34429;52.332;5.614;2023-02-04T13:40:47;14.75;;;3.40;;
48635;SDS011;34429;52.332;5.614;2023-02-04T13:43:15;15.25;;;2.92;;
48635;SDS011;34429;52.332;5.614;2023-02-04T13:45:44;17.67;;;3.20;;
48635;SDS011;34429;52.332;5.614;2023-02-04T13:48:15;15.68;;;3.25;;
48635;SDS011;34429;52.332;5.614;2023-02-04T13:50:44;14.65;;;3.22;;
48635;SDS011;34429;52.332;5.614;2023-02-04T13:53:13;11.57;;;2.75;;
48635;SDS011;34429;52.332;5.614;2023-02-04T13:55:41;17.05;;;4.18;;
48635;SDS011;34429;52.332;5.614;2023-02-04T13:58:09;18.80;;;3.28;;
48635;SDS011;34429;52.332;5.614;2023-02-04T14:00:38;16.17;;;2.73;;
48635;SDS011;34429;52.332;5.614;2023-02-04T14:03:06;21.95;;;2.65;;
48635;SDS011;34429;52.332;5.614;2023-02-04T14:05:37;20.27;;;3.50;;
48635;SDS011;34429;52.332;5.614;2023-02-04T14:08:05;15.43;;;3.42;;
48635;SDS011;34429;52.332;5.614;2023-02-04T14:10:34;15.83;;;3.50;;
48635;SDS011;34429;52.332;5.614;2023-02-04T14:13:02;18.65;;;2.95;;
48635;SDS011;34429;52.332;5.614;2023-02-04T14:15:30;17.87;;;2.80;;
48635;SDS011;34429;52.332;5.614;2023-02-04T14:17:59;10.90;;;2.50;;
48635;SDS011;34429;52.332;5.614;2023-02-04T14:20:27;17.45;;;3.42;;
48635;SDS011;34429;52.332;5.614;2023-02-04T14:22:58;14.70;;;3.38;;
48635;SDS011;34429;52.332;5.614;2023-02-04T14:25:27;13.00;;;3.08;;
48635;SDS011;34429;52.332;5.614;2023-02-04T14:27:55;13.70;;;2.70;;
48635;SDS011;34429;52.332;5.614;2023-02-04T14:30:25;23.37;;;2.90;;
48635;SDS011;34429;52.332;5.614;2023-02-04T14:32:55;16.13;;;3.08;;
48635;SDS011;34429;52.332;5.614;2023-02-04T14:35:25;19.73;;;3.33;;
48635;SDS011;34429;52.332;5.614;2023-02-04T14:37:53;19.30;;;3.80;;
48635;SDS011;34429;52.332;5.614;2023-02-04T14:40:25;23.63;;;3.67;;
48635;SDS011;34429;52.332;5.614;2023-02-04T14:42:53;29.88;;;9.68;;
48635;SDS011;34429;52.332;5.614;2023-02-04T14:45:22;25.35;;;7.55;;
48635;SDS011;34429;52.332;5.614;2023-02-04T14:47:50;18.27;;;5.00;;
48635;SDS011;34429;52.332;5.614;2023-02-04T14:50:21;24.90;;;6.40;;
48635;SDS011;34429;52.332;5.614;2023-02-04T14:52:52;21.92;;;5.50;;